Time;durP1;ratioP1;P1;durP2;ratioP2;P2;SDS_P1;SDS_P2;PMS_P1;PMS_P2;Temp;Humidity;BMP_temperature;BMP_pressure;BME280_temperature;BME280_humidity;BME280_pressure;Samples;Min_cycle;Max_cycle;Signal;HPM_P1;HPM_P2
2022/09/21 00:00:27;;;;;;;;;;;;;;;12.31;65.69;102134.19;5070139;28;20399;-77
2022/09/21 00:02:55;;;;;;;;;;;;;;;12.35;65.16;102125.47;5073746;28;20370;-77
2022/09/21 00:05:20;;;;;;;;;;;;;;;12.38;65.05;102128.06;5064154;28;19928;-77
2022/09/21 00:07:46;;;;;;;;;;;;;;;12.21;65.23;102129.94;5071900;28;19921;-77
2022/09/21 00:10:11;;;;;;;;;;;;;;;12.24;64.67;102125.56;5066556;28;19920;-77
2022/09/21 00:12:39;;;;;;;;;;;;;;;12.31;64.63;102123.75;5072419;28;19924;-77
2022/09/21 00:15:08;;;;;;;;;;;;;;;12.30;64.93;102125.53;5070351;28;20560;-77
2022/09/21 00:17:34;;;;;;;;;;;;;;;12.31;64.65;102123.75;5071641;28;20028;-77
2022/09/21 00:20:01;;;;;;;;;;;;;;;12.23;64.83;102122.97;5051561;28;19995;-77
2022/09/21 00:22:26;;;;;;;;;;;;;;;12.21;64.64;102122.97;5054759;28;20490;-77
2022/09/21 00:24:51;;;;;;;;;;;;;;;12.22;65.29;102124.69;5070577;28;19959;-76
2022/09/21 00:27:17;;;;;;;;;;;;;;;12.24;64.19;102119.47;5070767;28;19939;-77
2022/09/21 00:29:42;;;;;;;;;;;;;;;12.17;65.22;102126.47;5070053;28;20035;-77
2022/09/21 00:32:07;;;;;;;;;;;;;;;12.16;64.88;102129.06;5064895;28;20027;-77
2022/09/21 00:34:32;;;;;;;;;;;;;;;12.10;65.09;102125.63;5068803;28;19978;-77
2022/09/21 00:36:58;;;;;;;;;;;;;;;12.15;65.29;102137.78;5071955;28;19924;-77
2022/09/21 00:39:23;;;;;;;;;;;;;;;12.21;64.92;102133.41;5066633;28;19916;-77
2022/09/21 00:41:52;;;;;;;;;;;;;;;12.12;65.02;102141.28;5078227;28;20357;-77
2022/09/21 00:44:28;;;;;;;;;;;;;;;12.20;64.47;102141.22;5078861;28;19920;-76
2022/09/21 00:46:55;;;;;;;;;;;;;;;12.22;63.96;102145.53;5070811;28;19948;-77
2022/09/21 00:49:21;;;;;;;;;;;;;;;12.06;64.13;102134.34;5058562;28;19920;-77
2022/09/21 00:51:48;;;;;;;;;;;;;;;12.10;63.81;102132.56;5072188;28;19920;-77
2022/09/21 00:54:17;;;;;;;;;;;;;;;12.05;63.61;102131.75;5076639;28;20035;-77
2022/09/21 00:56:43;;;;;;;;;;;;;;;12.05;64.02;102126.53;5062251;28;19925;-77
2022/09/21 00:59:10;;;;;;;;;;;;;;;11.80;64.18;102131.00;5081107;28;19929;-77
2022/09/21 01:01:37;;;;;;;;;;;;;;;11.69;64.18;102137.13;5070901;28;19952;-77
2022/09/21 01:04:02;;;;;;;;;;;;;;;11.73;64.20;102133.63;5074813;28;19920;-77
2022/09/21 01:06:28;;;;;;;;;;;;;;;11.86;64.42;102135.31;5081186;28;19920;-77
2022/09/21 01:08:55;;;;;;;;;;;;;;;11.92;64.30;102133.53;5075292;28;20477;-77
2022/09/21 01:11:33;;;;;;;;;;;;;;;11.94;63.87;102128.34;5075821;28;20592;-77
2022/09/21 01:14:18;;;;;;;;;;;;;;;11.94;64.18;102134.41;5077348;28;19923;-77
2022/09/21 01:16:47;;;;;;;;;;;;;;;11.89;64.36;102137.91;5021683;28;19925;-77
2022/09/21 01:19:52;;;;;;;;;;;;;;;11.74;64.07;102138.81;5073524;28;19935;-77
2022/09/21 01:22:26;;;;;;;;;;;;;;;11.72;64.11;102139.69;5013400;28;20012;-77
2022/09/21 01:24:57;;;;;;;;;;;;;;;11.82;64.17;102133.59;5018053;28;19970;-76
2022/09/21 01:27:40;;;;;;;;;;;;;;;11.84;63.74;102135.31;5042106;28;20407;-77
2022/09/21 01:30:11;;;;;;;;;;;;;;;11.91;63.89;102137.03;5074292;28;19999;-77
2022/09/21 01:32:36;;;;;;;;;;;;;;;11.80;63.40;102141.41;5076298;28;19920;-77
2022/09/21 01:35:08;;;;;;;;;;;;;;;11.72;63.62;102147.50;5085587;28;19920;-77
2022/09/21 01:37:40;;;;;;;;;;;;;;;11.74;63.77;102143.19;5068066;28;19924;-77
2022/09/21 01:40:15;;;;;;;;;;;;;;;11.59;63.99;102145.84;5076648;28;20375;-77
2022/09/21 01:42:42;;;;;;;;;;;;;;;11.66;63.82;102156.22;5075699;28;19908;-77
2022/09/21 01:45:09;;;;;;;;;;;;;;;11.69;63.95;102155.34;5074284;28;20288;-77
2022/09/21 01:47:36;;;;;;;;;;;;;;;11.70;64.52;102150.13;5067152;28;19920;-77
2022/09/21 01:50:04;;;;;;;;;;;;;;;11.77;64.52;102154.44;5061359;28;19924;-77
2022/09/21 01:52:36;;;;;;;;;;;;;;;11.77;64.13;102158.81;5053256;28;19923;-77
2022/09/21 01:55:08;;;;;;;;;;;;;;;11.76;64.07;102155.31;5076707;28;19931;-77
2022/09/21 01:57:36;;;;;;;;;;;;;;;11.73;63.44;102149.25;5082767;28;20036;-77
2022/09/21 02:00:01;;;;;;;;;;;;;;;11.60;63.85;102152.75;5052056;28;19954;-77
2022/09/21 02:02:35;;;;;;;;;;;;;;;11.54;64.04;102158.84;5081241;28;19920;-77
2022/09/21 02:05:02;;;;;;;;;;;;;;;11.70;63.72;102152.75;5065442;28;19928;-77
2022/09/21 02:07:27;;;;;;;;;;;;;;;11.58;64.11;102152.78;5076744;28;19920;-77
2022/09/21 02:09:54;;;;;;;;;;;;;;;11.57;64.13;102157.13;5074214;28;19935;-77
2022/09/21 02:12:19;;;;;;;;;;;;;;;11.53;63.42;102152.78;5079062;28;19916;-77
2022/09/21 02:14:45;;;;;;;;;;;;;;;11.46;63.82;102158.88;5056607;28;20532;-77
2022/09/21 02:17:10;;;;;;;;;;;;;;;11.48;64.42;102162.34;5067001;28;19983;-77
2022/09/21 02:19:43;;;;;;;;;;;;;;;11.43;63.71;102155.41;5078139;28;19982;-77
2022/09/21 02:22:11;;;;;;;;;;;;;;;11.40;63.68;102155.44;5052714;28;20384;-77
2022/09/21 02:24:42;;;;;;;;;;;;;;;11.45;63.48;102153.66;5071325;28;19987;-76
2022/09/21 02:27:27;;;;;;;;;;;;;;;11.34;63.96;102156.31;5076754;28;20569;-77
2022/09/21 02:30:09;;;;;;;;;;;;;;;11.42;63.80;102149.34;5075730;28;19931;-77
2022/09/21 02:32:50;;;;;;;;;;;;;;;11.39;63.95;102144.16;5076983;28;19943;-77
2022/09/21 02:35:29;;;;;;;;;;;;;;;11.50;63.06;102144.13;5070942;28;20364;-77
2022/09/21 02:38:14;;;;;;;;;;;;;;;11.42;63.10;102145.88;5052504;28;20589;-77
2022/09/21 02:40:55;;;;;;;;;;;;;;;11.47;62.66;102142.38;5066480;28;19924;-77
2022/09/21 02:43:24;;;;;;;;;;;;;;;11.40;63.03;102140.69;5070241;28;19920;-77
2022/09/21 02:45:59;;;;;;;;;;;;;;;11.34;62.76;102140.69;5070637;28;20000;-76
2022/09/21 02:48:35;;;;;;;;;;;;;;;11.35;62.88;102144.19;5076134;28;20427;-77
2022/09/21 02:51:08;;;;;;;;;;;;;;;11.35;62.32;102142.44;5071319;28;19928;-77
2022/09/21 02:53:35;;;;;;;;;;;;;;;11.33;62.95;102149.38;5057063;28;19920;-77
2022/09/21 02:56:05;;;;;;;;;;;;;;;11.32;62.60;102137.25;5073245;28;19936;-77
2022/09/21 02:58:33;;;;;;;;;;;;;;;11.32;62.93;102136.38;5077716;28;19956;-76
2022/09/21 03:00:58;;;;;;;;;;;;;;;11.37;62.75;102134.63;5053146;28;20288;-77
2022/09/21 03:03:25;;;;;;;;;;;;;;;11.30;62.83;102138.09;5071665;28;19920;-77
2022/09/21 03:05:51;;;;;;;;;;;;;;;11.21;63.59;102132.88;5057406;28;19943;-77
2022/09/21 03:08:17;;;;;;;;;;;;;;;11.31;62.95;102134.63;5083486;28;19951;-77
2022/09/21 03:10:43;;;;;;;;;;;;;;;11.28;62.39;102135.50;5074224;28;19955;-76
2022/09/21 03:13:08;;;;;;;;;;;;;;;11.24;63.11;102131.13;5079951;28;19948;-76
2022/09/21 03:15:37;;;;;;;;;;;;;;;11.25;62.59;102132.88;5078752;28;19917;-77
2022/09/21 03:18:08;;;;;;;;;;;;;;;11.15;62.50;102138.97;5070124;28;19925;-77
2022/09/21 03:20:34;;;;;;;;;;;;;;;11.10;63.21;102135.50;5069340;28;19924;-76
2022/09/21 03:22:59;;;;;;;;;;;;;;;11.11;63.35;102145.06;5077867;28;19924;-77
2022/09/21 03:25:25;;;;;;;;;;;;;;;10.96;63.93;102138.13;5078471;28;20021;-77
2022/09/21 03:27:54;;;;;;;;;;;;;;;11.11;63.45;102145.06;5073988;28;19912;-77
2022/09/21 03:30:20;;;;;;;;;;;;;;;11.13;63.49;102145.03;5080015;28;19916;-76
2022/09/21 03:32:47;;;;;;;;;;;;;;;11.09;63.43;102144.16;5070523;28;20395;-77
2022/09/21 03:35:12;;;;;;;;;;;;;;;11.23;64.07;102145.03;5070336;28;19916;-77
2022/09/21 03:37:38;;;;;;;;;;;;;;;11.24;64.23;102145.88;5072006;28;20049;-77
2022/09/21 03:40:03;;;;;;;;;;;;;;;11.28;64.23;102150.25;5075500;28;19951;-77
2022/09/21 03:42:28;;;;;;;;;;;;;;;11.20;65.75;102162.38;5075119;28;19917;-77
2022/09/21 03:44:54;;;;;;;;;;;;;;;11.29;65.46;102158.06;5083277;28;19916;-77
2022/09/21 03:47:19;;;;;;;;;;;;;;;11.28;65.87;102163.25;5071719;28;20324;-77
2022/09/21 03:49:45;;;;;;;;;;;;;;;11.41;66.42;102159.78;5065225;28;19920;-77
2022/09/21 03:52:10;;;;;;;;;;;;;;;11.20;67.66;102154.56;5070641;28;19926;-77
2022/09/21 03:54:35;;;;;;;;;;;;;;;11.34;67.53;102153.72;5072938;28;20443;-77
2022/09/21 03:57:00;;;;;;;;;;;;;;;11.31;67.35;102158.03;5055111;28;19955;-77
2022/09/21 03:59:26;;;;;;;;;;;;;;;11.31;67.80;102156.31;5058501;28;19920;-77
2022/09/21 04:01:51;;;;;;;;;;;;;;;11.29;67.15;102155.47;5073553;28;19928;-77
2022/09/21 04:04:16;;;;;;;;;;;;;;;11.35;67.08;102154.59;5043038;28;20035;-77
2022/09/21 04:06:43;;;;;;;;;;;;;;;11.30;66.98;102159.78;5070481;28;20003;-77
2022/09/21 04:09:09;;;;;;;;;;;;;;;11.36;66.76;102157.16;5071853;28;19927;-77
2022/09/21 04:11:34;;;;;;;;;;;;;;;11.50;66.64;102150.19;5078009;28;19917;-77
2022/09/21 04:14:00;;;;;;;;;;;;;;;11.45;66.57;102153.66;5081012;28;19928;-77
2022/09/21 04:16:26;;;;;;;;;;;;;;;11.35;66.54;102157.19;5073606;28;19928;-76
2022/09/21 04:18:51;;;;;;;;;;;;;;;11.31;67.24;102164.13;5071641;28;20388;-76
2022/09/21 04:21:17;;;;;;;;;;;;;;;11.46;66.11;102158.88;5069974;28;19913;-77
2022/09/21 04:23:42;;;;;;;;;;;;;;;11.44;66.21;102163.22;5067991;28;19931;-77
2022/09/21 04:26:17;;;;;;;;;;;;;;;11.31;66.58;102161.53;5071029;28;20003;-77
2022/09/21 04:28:42;;;;;;;;;;;;;;;11.43;66.08;102161.50;5066193;28;19920;-77
2022/09/21 04:31:08;;;;;;;;;;;;;;;11.32;65.59;102158.06;5052784;28;20668;-77
2022/09/21 04:33:33;;;;;;;;;;;;;;;11.08;66.68;102155.47;5071557;28;19923;-77
2022/09/21 04:35:58;;;;;;;;;;;;;;;11.11;65.91;102159.78;5072324;28;20003;-77
2022/09/21 04:38:23;;;;;;;;;;;;;;;11.33;65.17;102170.19;5067584;28;19942;-77
2022/09/21 04:40:56;;;;;;;;;;;;;;;11.17;65.08;102168.47;5067743;28;19966;-77
2022/09/21 04:43:22;;;;;;;;;;;;;;;11.16;64.75;102161.50;5068200;28;19920;-77
2022/09/21 04:45:47;;;;;;;;;;;;;;;11.03;66.14;102173.66;5068656;28;19922;-77
2022/09/21 04:48:12;;;;;;;;;;;;;;;11.03;65.44;102173.66;5068492;28;19963;-77
2022/09/21 04:50:38;;;;;;;;;;;;;;;11.12;65.18;102162.38;5052447;28;20127;-77
2022/09/21 04:53:03;;;;;;;;;;;;;;;11.10;65.41;102169.31;5069690;28;20429;-77
2022/09/21 04:55:28;;;;;;;;;;;;;;;11.04;65.51;102174.53;5074492;28;19930;-77
2022/09/21 04:57:53;;;;;;;;;;;;;;;11.18;65.18;102174.50;5068334;28;19921;-76
2022/09/21 05:00:19;;;;;;;;;;;;;;;11.07;64.26;102171.91;5070031;28;20269;-77
2022/09/21 05:02:44;;;;;;;;;;;;;;;11.17;64.51;102181.47;5066900;28;19920;-77
2022/09/21 05:05:09;;;;;;;;;;;;;;;10.96;65.78;102184.06;5067898;28;20373;-77
2022/09/21 05:07:35;;;;;;;;;;;;;;;11.06;65.94;102188.38;5069535;28;19962;-77
2022/09/21 05:10:03;;;;;;;;;;;;;;;10.92;66.54;102191.00;5053333;28;19974;-77
2022/09/21 05:12:29;;;;;;;;;;;;;;;10.93;65.78;102192.75;5065458;28;19983;-77
2022/09/21 05:14:54;;;;;;;;;;;;;;;10.92;66.01;102196.19;5049205;28;19959;-77
2022/09/21 05:17:22;;;;;;;;;;;;;;;10.99;65.50;102197.94;5070579;28;19972;-77
2022/09/21 05:19:50;;;;;;;;;;;;;;;10.98;65.73;102200.53;5068987;28;19920;-77
2022/09/21 05:22:16;;;;;;;;;;;;;;;10.90;65.98;102200.53;5064664;28;20273;-77
2022/09/21 05:24:41;;;;;;;;;;;;;;;10.86;66.09;102205.72;5069423;28;19927;-77
2022/09/21 05:27:07;;;;;;;;;;;;;;;10.87;65.48;102202.25;5062566;28;20022;-77
2022/09/21 05:29:32;;;;;;;;;;;;;;;11.02;65.97;102204.88;5060591;28;20373;-77
2022/09/21 05:32:05;;;;;;;;;;;;;;;10.97;66.53;102206.56;5061356;28;19934;-78
2022/09/21 05:34:39;;;;;;;;;;;;;;;11.01;66.24;102206.59;5048637;28;19934;-77
2022/09/21 05:37:07;;;;;;;;;;;;;;;10.97;66.03;102212.66;5062674;28;19931;-77
2022/09/21 05:39:33;;;;;;;;;;;;;;;11.03;65.95;102212.66;5067734;28;19921;-77
2022/09/21 05:42:01;;;;;;;;;;;;;;;10.95;65.87;102210.91;5065613;28;20007;-77
2022/09/21 05:44:26;;;;;;;;;;;;;;;10.98;66.46;102214.41;5070036;28;19971;-77
2022/09/21 05:46:52;;;;;;;;;;;;;;;10.89;67.26;102214.38;5081079;28;20334;-77
2022/09/21 05:49:26;;;;;;;;;;;;;;;11.01;66.48;102214.41;5076923;28;19923;-77
2022/09/21 05:51:59;;;;;;;;;;;;;;;11.04;67.18;102226.53;5069355;28;19963;-77
2022/09/21 05:54:48;;;;;;;;;;;;;;;11.01;67.05;102227.41;5077589;28;19935;-78
2022/09/21 05:57:22;;;;;;;;;;;;;;;10.99;67.20;102228.28;5072032;28;19932;-77
2022/09/21 05:59:53;;;;;;;;;;;;;;;10.99;67.48;102233.47;5074242;28;19920;-77
2022/09/21 06:02:37;;;;;;;;;;;;;;;11.04;67.74;102229.13;5065003;28;20388;-77
2022/09/21 06:05:04;;;;;;;;;;;;;;;11.06;68.11;102229.97;5068526;28;20645;-79
2022/09/21 06:07:30;;;;;;;;;;;;;;;10.85;68.24;102233.44;5065642;28;19944;-77
2022/09/21 06:09:55;;;;;;;;;;;;;;;10.92;69.21;102244.72;5075694;28;19920;-77
2022/09/21 06:12:20;;;;;;;;;;;;;;;11.06;68.18;102242.16;5067572;28;20619;-77
2022/09/21 06:14:45;;;;;;;;;;;;;;;11.26;67.58;102240.41;5068091;28;20348;-77
2022/09/21 06:17:11;;;;;;;;;;;;;;;11.20;67.97;102241.28;5069017;28;19943;-77
2022/09/21 06:19:36;;;;;;;;;;;;;;;11.27;67.21;102249.94;5069390;28;19927;-77
2022/09/21 06:22:01;;;;;;;;;;;;;;;11.25;68.10;102249.94;5054744;28;19924;-77
2022/09/21 06:24:27;;;;;;;;;;;;;;;11.16;68.25;102251.66;5055795;28;19955;-77
2022/09/21 06:26:52;;;;;;;;;;;;;;;11.33;67.55;102253.44;5077071;28;19920;-77
2022/09/21 06:29:22;;;;;;;;;;;;;;;11.24;68.48;102249.94;5052842;28;19921;-77
2022/09/21 06:31:47;;;;;;;;;;;;;;;11.32;68.08;102256.91;5075450;28;19927;-77
2022/09/21 06:34:13;;;;;;;;;;;;;;;11.34;68.07;102260.38;5052518;28;19928;-77
2022/09/21 06:36:38;;;;;;;;;;;;;;;11.23;68.49;102253.41;5069749;28;20431;-77
2022/09/21 06:39:03;;;;;;;;;;;;;;;11.36;68.67;102258.63;5067412;28;19935;-77
2022/09/21 06:41:28;;;;;;;;;;;;;;;11.37;68.28;102249.97;5066609;28;20385;-77
2022/09/21 06:43:55;;;;;;;;;;;;;;;11.45;67.54;102258.63;5069569;28;19947;-77
2022/09/21 06:46:21;;;;;;;;;;;;;;;11.41;67.37;102254.28;5066010;28;20003;-77
2022/09/21 06:48:46;;;;;;;;;;;;;;;11.45;67.18;102252.56;5077514;28;20008;-77
2022/09/21 06:51:11;;;;;;;;;;;;;;;11.43;67.91;102260.38;5078478;28;19920;-77
2022/09/21 06:53:37;;;;;;;;;;;;;;;11.44;67.55;102251.69;5068473;28;20435;-77
2022/09/21 06:56:03;;;;;;;;;;;;;;;11.49;67.68;102252.56;5079313;28;19920;-77
2022/09/21 06:58:29;;;;;;;;;;;;;;;11.43;67.30;102255.16;5073495;28;19924;-77
2022/09/21 07:00:55;;;;;;;;;;;;;;;11.51;67.43;102253.41;5064315;28;20372;-77
2022/09/21 07:03:20;;;;;;;;;;;;;;;11.33;67.54;102252.56;5073428;28;19912;-77
2022/09/21 07:05:45;;;;;;;;;;;;;;;11.50;67.12;102256.03;5049673;28;20500;-77
2022/09/21 07:08:11;;;;;;;;;;;;;;;11.55;67.14;102254.28;5068046;28;19928;-77
2022/09/21 07:10:36;;;;;;;;;;;;;;;11.33;68.50;102260.38;5069463;28;19920;-77
2022/09/21 07:13:04;;;;;;;;;;;;;;;11.47;67.95;102259.47;5068142;28;19925;-77
2022/09/21 07:15:30;;;;;;;;;;;;;;;11.51;68.35;102262.94;5073731;28;19916;-77
2022/09/21 07:17:55;;;;;;;;;;;;;;;11.45;68.46;102268.16;5073084;28;19931;-77
2022/09/21 07:20:21;;;;;;;;;;;;;;;11.64;67.37;102258.59;5071712;28;20409;-77
2022/09/21 07:22:46;;;;;;;;;;;;;;;11.57;67.72;102266.41;5071146;28;19974;-77
2022/09/21 07:25:12;;;;;;;;;;;;;;;11.61;66.87;102259.47;5069105;28;19924;-77
2022/09/21 07:27:37;;;;;;;;;;;;;;;11.68;67.51;102258.59;5073069;28;19917;-77
2022/09/21 07:30:03;;;;;;;;;;;;;;;11.50;68.02;102266.44;5070664;28;19922;-77
2022/09/21 07:32:30;;;;;;;;;;;;;;;11.43;67.40;102268.19;5082014;28;20330;-77
2022/09/21 07:34:55;;;;;;;;;;;;;;;11.47;68.43;102269.06;5071969;28;19967;-77
2022/09/21 07:37:22;;;;;;;;;;;;;;;11.59;67.62;102268.16;5068845;28;19987;-77
2022/09/21 07:39:47;;;;;;;;;;;;;;;11.64;67.13;102269.91;5065135;28;20583;-77
2022/09/21 07:42:13;;;;;;;;;;;;;;;11.63;67.89;102264.66;5077546;28;19916;-77
2022/09/21 07:44:38;;;;;;;;;;;;;;;11.58;67.61;102256.88;5051369;28;20380;-77
2022/09/21 07:47:03;;;;;;;;;;;;;;;11.63;67.03;102262.94;5061724;28;19920;-77
2022/09/21 07:49:29;;;;;;;;;;;;;;;11.57;66.50;102269.03;5067361;28;19920;-77
2022/09/21 07:51:57;;;;;;;;;;;;;;;11.62;67.10;102263.84;5073285;28;19917;-77
2022/09/21 07:54:22;;;;;;;;;;;;;;;11.67;67.15;102269.00;5070825;28;20445;-77
2022/09/21 07:59:04;;;;;;;;;;;;;;;11.72;68.27;102265.53;5083147;28;19924;-77
2022/09/21 07:59:33;;;;;;;;;;;;;;;11.71;68.42;102268.16;5069103;28;19924;-78
2022/09/21 08:01:59;;;;;;;;;;;;;;;11.73;67.61;102269.00;5051399;28;19936;-78
2022/09/21 08:04:24;;;;;;;;;;;;;;;11.49;68.94;102270.78;5074100;28;19942;-77
2022/09/21 08:06:49;;;;;;;;;;;;;;;11.71;68.01;102269.00;5069470;28;19920;-77
2022/09/21 08:09:15;;;;;;;;;;;;;;;11.81;67.61;102273.31;5071828;28;19929;-77
2022/09/21 08:11:43;;;;;;;;;;;;;;;11.83;67.67;102268.97;5069739;28;19924;-77
2022/09/21 08:14:09;;;;;;;;;;;;;;;11.81;67.04;102270.72;5072810;28;19926;-77
2022/09/21 08:16:36;;;;;;;;;;;;;;;11.89;67.42;102270.72;5068636;28;19928;-76
2022/09/21 08:19:03;;;;;;;;;;;;;;;11.84;67.49;102262.91;5074909;28;19920;-77
2022/09/21 08:21:28;;;;;;;;;;;;;;;11.98;67.24;102265.44;5066960;28;19912;-77
2022/09/21 08:23:53;;;;;;;;;;;;;;;12.01;67.88;102271.53;5077024;28;19920;-77
2022/09/21 08:26:19;;;;;;;;;;;;;;;11.96;67.87;102275.03;5066709;28;19920;-77
2022/09/21 08:28:50;;;;;;;;;;;;;;;11.90;67.44;102267.22;5079928;28;19916;-77
2022/09/21 08:31:18;;;;;;;;;;;;;;;11.94;67.75;102272.44;5077356;28;19920;-77
2022/09/21 08:33:43;;;;;;;;;;;;;;;12.00;68.48;102277.63;5066638;28;19974;-77
2022/09/21 08:36:08;;;;;;;;;;;;;;;11.95;67.84;102279.34;5067919;28;19916;-77
2022/09/21 08:38:35;;;;;;;;;;;;;;;12.05;68.24;102278.47;5065370;28;19920;-78
2022/09/21 08:41:02;;;;;;;;;;;;;;;12.13;67.59;102273.22;5068419;28;19928;-77
2022/09/21 08:43:28;;;;;;;;;;;;;;;12.12;67.96;102274.13;5071662;28;20457;-77
2022/09/21 08:45:54;;;;;;;;;;;;;;;12.05;68.46;102272.38;5078361;28;19912;-77
2022/09/21 08:48:22;;;;;;;;;;;;;;;12.03;68.43;102271.53;5066092;28;20296;-77
2022/09/21 08:50:51;;;;;;;;;;;;;;;12.12;68.86;102276.72;5065831;28;19927;-78
2022/09/21 08:53:19;;;;;;;;;;;;;;;12.23;67.69;102274.06;5065581;28;19959;-77
2022/09/21 08:55:44;;;;;;;;;;;;;;;12.31;68.49;102267.94;5071588;28;19965;-77
2022/09/21 08:58:19;;;;;;;;;;;;;;;12.16;68.76;102268.00;5050627;28;19925;-77
2022/09/21 09:00:44;;;;;;;;;;;;;;;12.27;67.81;102267.97;5071018;28;19916;-77
2022/09/21 09:03:30;;;;;;;;;;;;;;;12.12;68.70;102274.13;5053929;28;19923;-77
2022/09/21 09:06:00;;;;;;;;;;;;;;;12.24;69.29;102271.47;5060556;28;19927;-77
2022/09/21 09:08:44;;;;;;;;;;;;;;;12.34;68.86;102267.94;5076806;28;19928;-77
2022/09/21 09:11:15;;;;;;;;;;;;;;;12.38;67.84;102259.25;5069440;28;19916;-77
2022/09/21 09:13:41;;;;;;;;;;;;;;;12.34;68.16;102260.13;5073657;28;20164;-77
2022/09/21 09:16:35;;;;;;;;;;;;;;;12.27;68.10;102270.59;5079792;28;20380;-77
2022/09/21 09:19:16;;;;;;;;;;;;;;;12.33;68.16;102266.22;5057565;28;20285;-77
2022/09/21 09:21:42;;;;;;;;;;;;;;;12.33;68.55;102271.44;5074792;28;20483;-78
2022/09/21 09:24:14;;;;;;;;;;;;;;;12.43;68.34;102264.41;5077904;28;19924;-77
2022/09/21 09:26:44;;;;;;;;;;;;;;;12.47;68.32;102260.94;5057288;28;19920;-77
2022/09/21 09:29:12;;;;;;;;;;;;;;;12.48;67.84;102260.06;5071119;28;20328;-77
2022/09/21 09:31:38;;;;;;;;;;;;;;;12.42;68.48;102258.31;5076021;28;19921;-77
2022/09/21 09:34:09;;;;;;;;;;;;;;;12.50;68.70;102261.78;5053815;28;20373;-77
2022/09/21 09:36:35;;;;;;;;;;;;;;;12.56;68.67;102260.91;5066964;28;19920;-78
2022/09/21 09:39:02;;;;;;;;;;;;;;;12.46;67.11;102259.19;5073818;28;19925;-78
2022/09/21 09:41:44;;;;;;;;;;;;;;;12.60;67.02;102257.44;5057788;28;19932;-77
2022/09/21 09:44:18;;;;;;;;;;;;;;;12.74;67.16;102247.78;5072889;28;19978;-77
2022/09/21 09:47:02;;;;;;;;;;;;;;;12.72;66.80;102252.09;5053123;28;20393;-77
2022/09/21 09:49:27;;;;;;;;;;;;;;;12.75;66.25;102246.88;5067316;28;20525;-77
2022/09/21 09:51:53;;;;;;;;;;;;;;;12.85;65.62;102248.56;5077446;28;19948;-77
2022/09/21 09:54:20;;;;;;;;;;;;;;;12.89;66.69;102249.41;5072156;28;20361;-77
2022/09/21 09:56:46;;;;;;;;;;;;;;;12.93;67.13;102244.16;5069363;28;19932;-77
2022/09/21 09:59:20;;;;;;;;;;;;;;;12.95;66.86;102244.16;5080458;28;19920;-77
2022/09/21 10:01:57;;;;;;;;;;;;;;;13.03;66.30;102237.13;5077217;28;20395;-77
2022/09/21 10:04:23;;;;;;;;;;;;;;;13.00;65.85;102238.03;5081571;28;19957;-77
2022/09/21 10:06:48;;;;;;;;;;;;;;;13.05;66.07;102237.97;5067033;28;19928;-77
2022/09/21 10:09:17;;;;;;;;;;;;;;;13.04;66.60;102233.66;5069041;28;20361;-78
2022/09/21 10:11:42;;;;;;;;;;;;;;;13.02;65.32;102228.44;5069592;28;19924;-77
2022/09/21 10:14:16;;;;;;;;;;;;;;;13.14;64.83;102217.91;5067269;28;20016;-77
2022/09/21 10:16:42;;;;;;;;;;;;;;;13.21;64.08;102216.97;5068245;28;20416;-77
2022/09/21 10:19:14;;;;;;;;;;;;;;;13.07;62.67;102223.19;5080552;28;20365;-77
2022/09/21 10:21:42;;;;;;;;;;;;;;;13.20;62.60;102216.97;5069185;28;20066;-77
2022/09/21 10:24:14;;;;;;;;;;;;;;;13.25;60.73;102211.72;5075588;28;19943;-77
2022/09/21 10:26:53;;;;;;;;;;;;;;;13.22;61.09;102215.25;5075288;28;19931;-77
2022/09/21 10:29:21;;;;;;;;;;;;;;;13.33;60.83;102209.91;5066823;28;19924;-77
2022/09/21 10:31:55;;;;;;;;;;;;;;;13.32;60.81;102211.66;5067240;28;19928;-77
2022/09/21 10:34:20;;;;;;;;;;;;;;;13.31;60.78;102209.94;5067073;28;19949;-77
2022/09/21 10:36:50;;;;;;;;;;;;;;;13.38;60.49;102210.72;5066459;28;19921;-77
2022/09/21 10:39:19;;;;;;;;;;;;;;;13.45;60.73;102207.19;5050209;28;19924;-77
2022/09/21 10:42:04;;;;;;;;;;;;;;;13.49;61.06;102211.50;5070511;28;19986;-77
2022/09/21 10:44:43;;;;;;;;;;;;;;;13.41;60.78;102208.06;5051690;28;19928;-77
2022/09/21 10:47:34;;;;;;;;;;;;;;;13.40;60.21;102204.63;5070560;28;20015;-77
2022/09/21 10:50:01;;;;;;;;;;;;;;;13.48;60.46;102210.63;5065445;28;19925;-77
2022/09/21 10:52:55;;;;;;;;;;;;;;;13.50;61.33;102210.59;5053489;28;19917;-77
2022/09/21 10:55:21;;;;;;;;;;;;;;;13.48;60.74;102205.41;5072350;28;20425;-77
2022/09/21 10:57:47;;;;;;;;;;;;;;;13.52;60.17;102206.25;5072988;28;19925;-77
2022/09/21 11:00:28;;;;;;;;;;;;;;;13.51;59.30;102205.38;5051791;28;19920;-77
2022/09/21 11:02:54;;;;;;;;;;;;;;;13.54;58.49;102204.47;5077709;28;19931;-77
2022/09/21 11:05:19;;;;;;;;;;;;;;;13.50;59.31;102202.78;5076626;28;19920;-77
2022/09/21 11:07:53;;;;;;;;;;;;;;;13.53;58.63;102203.59;5082950;28;19924;-77
2022/09/21 11:10:18;;;;;;;;;;;;;;;13.46;59.50;102201.94;5067686;28;20069;-77
2022/09/21 11:12:53;;;;;;;;;;;;;;;13.46;59.17;102195.88;5066465;28;20392;-79
2022/09/21 11:15:37;;;;;;;;;;;;;;;13.52;58.08;102194.03;5067602;28;19920;-78
2022/09/21 11:18:02;;;;;;;;;;;;;;;13.56;58.07;102193.13;5062564;28;19928;-77
2022/09/21 11:20:35;;;;;;;;;;;;;;;13.68;59.08;102185.19;5049426;28;19926;-77
2022/09/21 11:23:06;;;;;;;;;;;;;;;13.68;56.29;102176.50;5070953;28;19981;-77
2022/09/21 11:25:38;;;;;;;;;;;;;;;13.62;56.96;102185.22;5074458;28;20045;-77
2022/09/21 11:28:12;;;;;;;;;;;;;;;13.65;56.82;102182.59;5074021;28;19916;-77
2022/09/21 11:30:56;;;;;;;;;;;;;;;13.73;57.38;102178.16;5069260;28;19970;-77
2022/09/21 11:33:24;;;;;;;;;;;;;;;13.69;55.64;102171.28;5071135;28;20424;-77
2022/09/21 11:36:12;;;;;;;;;;;;;;;13.76;56.09;102162.47;5067887;28;20399;-77
2022/09/21 11:39:16;;;;;;;;;;;;;;;13.82;57.51;102171.97;5066676;28;19982;-78
2022/09/21 11:41:49;;;;;;;;;;;;;;;13.92;57.42;102168.38;4986809;28;19925;-77
2022/09/21 11:44:23;;;;;;;;;;;;;;;13.93;56.55;102171.84;4990482;28;19925;-77
2022/09/21 11:47:08;;;;;;;;;;;;;;;13.92;55.33;102165.75;5028082;28;20334;-77
2022/09/21 11:49:36;;;;;;;;;;;;;;;13.87;56.17;102166.69;5070765;28;19925;-77
2022/09/21 11:52:26;;;;;;;;;;;;;;;13.83;54.25;102162.38;5074434;28;19920;-77
2022/09/21 11:54:58;;;;;;;;;;;;;;;13.85;53.53;102158.88;5064543;28;20003;-77
2022/09/21 11:57:30;;;;;;;;;;;;;;;13.87;54.03;102159.75;5072881;28;20365;-77
2022/09/21 12:00:04;;;;;;;;;;;;;;;13.91;53.38;102155.34;5069366;28;20004;-77
2022/09/21 12:02:32;;;;;;;;;;;;;;;13.93;54.57;102151.81;5081529;28;20463;-77
2022/09/21 12:05:02;;;;;;;;;;;;;;;13.89;53.93;102159.69;5071117;28;19920;-77
2022/09/21 12:07:47;;;;;;;;;;;;;;;13.95;54.26;102157.88;5070197;28;19945;-77
2022/09/21 12:10:12;;;;;;;;;;;;;;;13.95;52.64;102142.22;5080011;28;19952;-77
2022/09/21 12:12:37;;;;;;;;;;;;;;;13.95;53.46;102134.38;5084053;28;20285;-77
2022/09/21 12:15:15;;;;;;;;;;;;;;;14.07;54.14;102135.94;5075135;28;19928;-77
2022/09/21 12:17:43;;;;;;;;;;;;;;;14.09;55.57;102136.78;5061025;28;19929;-77
2022/09/21 12:20:37;;;;;;;;;;;;;;;14.14;56.11;102137.59;5064923;28;20024;-77
2022/09/21 12:23:06;;;;;;;;;;;;;;;14.01;52.71;102131.69;5055207;28;19920;-77
2022/09/21 12:25:36;;;;;;;;;;;;;;;14.00;52.05;102123.84;5066325;28;19924;-78
2022/09/21 12:28:04;;;;;;;;;;;;;;;14.03;52.32;102126.41;5069477;28;20396;-77
2022/09/21 12:30:31;;;;;;;;;;;;;;;14.01;52.48;102123.84;5053572;28;19916;-78
2022/09/21 12:32:59;;;;;;;;;;;;;;;14.03;53.31;102121.19;5073149;28;19973;-77
2022/09/21 12:35:27;;;;;;;;;;;;;;;14.14;52.59;102114.97;5051404;28;19920;-77
2022/09/21 12:38:05;;;;;;;;;;;;;;;14.15;50.71;102116.66;5067686;28;20365;-78
2022/09/21 12:40:46;;;;;;;;;;;;;;;14.17;51.41;102114.91;5066711;28;19921;-77
2022/09/21 12:43:30;;;;;;;;;;;;;;;14.16;50.55;102112.31;5075662;28;19985;-77
2022/09/21 12:46:05;;;;;;;;;;;;;;;14.22;52.71;102114.84;5047353;28;19923;-77